Artvin — 9HA2782 — position and weather

sailwx.info

Track history (hours):
 
Tides and Currents Weather Stations Pressure Air Temp Water Temp Dewpoint Dewpoint Depression Visibility Wind Speed Wind Dir Waves Ship Positions

Artvin

Last reported at 2015-Sep-04 10:17 UTC. Time now 2015-Sep-05 12:23 UTC.
Position N 37°42' E 008°24'.

Length 229 m; draft 9.3 m.

Type: Cargo ship. MMSI: 215678000.

Date/timePositionNaut miles runAvg speedWind from/ knotsBaromVisibWave heightAir tempDewpointWater temp
2015-Sep-04 10:17N 37°42' E 008°24'4311.6
2015-Sep-04 06:33N 37°43' E 009°19'1211.8
2015-Sep-04 05:31N 37°41' E 009°34'1010.1
2015-Sep-04 04:34N 37°40' E 009°47'1310.3
2015-Sep-04 03:19N 37°40' E 010°03'810.3
2015-Sep-04 02:33N 37°40' E 010°13'1010.2
2015-Sep-04 01:33N 37°38' E 010°25'1010.1
2015-Sep-04 00:32N 37°35' E 010°38'10 9.9
2015-Sep-03 23:33N 37°33' E 010°50'10 9.9
2015-Sep-03 22:33N 37°31' E 011°02'10 9.7
2015-Sep-03 21:33N 37°27' E 011°13'1010.2
2015-Sep-03 20:33N 37°21' E 011°24'1110.4
2015-Sep-03 19:32N 37°16' E 011°36'1210.5
2015-Sep-03 18:22N 37°10' E 011°49'810.3
2015-Sep-03 17:34N 37°06' E 011°58'1110.5
2015-Sep-03 16:33N 37°02' E 012°10'1010.0
2015-Sep-03 15:33N 36°59' E 012°22'1110.5
2015-Sep-03 14:32N 36°55' E 012°35'19 9.5
2015-Sep-03 12:33N 36°49' E 012°57'10 9.6
2015-Sep-03 11:31N 36°45' E 013°08'9 9.5
2015-Sep-03 10:33N 36°42' E 013°19'11 9.7
2015-Sep-03 09:26N 36°38' E 013°32'2110.4
2015-Sep-03 07:26N 36°31' E 013°56'1213.2
2015-Sep-03 06:33N 36°27' E 014°10'1212.4
2015-Sep-03 05:33N 36°22' E 014°24'1110.8
2015-Sep-03 04:33N 36°19' E 014°37'1110.6
2015-Sep-03 03:33N 36°16' E 014°49'70 9.7
2015-Sep-02 20:21N 35°55' E 016°12'  
2015-Aug-31 07:23N 32°49' E 028°21'8 9.6
2015-Aug-31 06:33N 32°47' E 028°31'20 9.7
2015-Aug-31 04:29N 32°41' E 028°53'3010.2
2015-Aug-31 01:33N 32°33' E 029°27'1010.4
2015-Aug-31 00:33N 32°30' E 029°39'1110.5
2015-Aug-30 23:29N 32°27' E 029°52'1010.6
2015-Aug-30 22:33N 32°24' E 030°03'1110.7
2015-Aug-30 21:33N 32°22' E 030°16'1110.6
2015-Aug-30 20:33N 32°18' E 030°27'1110.5
2015-Aug-30 19:32N 32°15' E 030°39'4210.0
2015-Aug-30 15:22N 31°57' E 031°23'8 9.7
2015-Aug-30 14:33N 31°52' E 031°31'28 1.7
2015-Aug-29 22:17N 31°28' E 031°46'0 0.0
2015-Aug-29 21:32N 31°28' E 031°46'0 0.0
2015-Aug-29 18:11N 31°28' E 031°46'0 0.0
2015-Aug-29 17:26N 31°28' E 031°46'0 0.0
2015-Aug-29 15:29N 31°28' E 031°46'0 0.0
2015-Aug-28 12:32N 31°28' E 031°46'0 0.0
2015-Aug-28 11:32N 31°28' E 031°46'0 0.0
2015-Aug-28 10:32N 31°28' E 031°46'0 0.0
2015-Aug-28 01:23N 31°28' E 031°46'0 0.0
2015-Aug-28 00:11N 31°28' E 031°46'0 0.0
2015-Aug-27 23:32N 31°28' E 031°46'0 0.0
2015-Aug-27 21:32N 31°28' E 031°46'0 0.0
2015-Aug-27 20:26N 31°28' E 031°46'0 0.0
2015-Aug-27 15:26N 31°28' E 031°46'0 0.0
2015-Aug-26 21:32N 31°28' E 031°46'  
Track history (hours):
 
Tides and Currents Weather Stations Pressure Air Temp Water Temp Dewpoint Dewpoint Depression Visibility Wind Speed Wind Dir Waves Ship Positions

Artvin

Last reported at 2015-Sep-04 10:17 UTC. Time now 2015-Sep-05 12:23 UTC.
Position N 37°42' E 008°24'.

Length 229 m; draft 9.3 m.

Type: Cargo ship. MMSI: 215678000.

Date/timePositionNaut miles runAvg speedWind from/ knotsBaromVisibWave heightAir tempDewpointWater temp
2015-Sep-04 10:17N 37°42' E 008°24'4311.6
2015-Sep-04 06:33N 37°43' E 009°19'1211.8
2015-Sep-04 05:31N 37°41' E 009°34'1010.1
2015-Sep-04 04:34N 37°40' E 009°47'1310.3
2015-Sep-04 03:19N 37°40' E 010°03'810.3
2015-Sep-04 02:33N 37°40' E 010°13'1010.2
2015-Sep-04 01:33N 37°38' E 010°25'1010.1
2015-Sep-04 00:32N 37°35' E 010°38'10 9.9
2015-Sep-03 23:33N 37°33' E 010°50'10 9.9
2015-Sep-03 22:33N 37°31' E 011°02'10 9.7
2015-Sep-03 21:33N 37°27' E 011°13'1010.2
2015-Sep-03 20:33N 37°21' E 011°24'1110.4
2015-Sep-03 19:32N 37°16' E 011°36'1210.5
2015-Sep-03 18:22N 37°10' E 011°49'810.3
2015-Sep-03 17:34N 37°06' E 011°58'1110.5
2015-Sep-03 16:33N 37°02' E 012°10'1010.0
2015-Sep-03 15:33N 36°59' E 012°22'1110.5
2015-Sep-03 14:32N 36°55' E 012°35'19 9.5
2015-Sep-03 12:33N 36°49' E 012°57'10 9.6
2015-Sep-03 11:31N 36°45' E 013°08'9 9.5
2015-Sep-03 10:33N 36°42' E 013°19'11 9.7
2015-Sep-03 09:26N 36°38' E 013°32'2110.4
2015-Sep-03 07:26N 36°31' E 013°56'1213.2
2015-Sep-03 06:33N 36°27' E 014°10'1212.4
2015-Sep-03 05:33N 36°22' E 014°24'1110.8
2015-Sep-03 04:33N 36°19' E 014°37'1110.6
2015-Sep-03 03:33N 36°16' E 014°49'70 9.7
2015-Sep-02 20:21N 35°55' E 016°12'  
2015-Aug-31 07:23N 32°49' E 028°21'8 9.6
2015-Aug-31 06:33N 32°47' E 028°31'20 9.7
2015-Aug-31 04:29N 32°41' E 028°53'3010.2
2015-Aug-31 01:33N 32°33' E 029°27'1010.4
2015-Aug-31 00:33N 32°30' E 029°39'1110.5
2015-Aug-30 23:29N 32°27' E 029°52'1010.6
2015-Aug-30 22:33N 32°24' E 030°03'1110.7
2015-Aug-30 21:33N 32°22' E 030°16'1110.6
2015-Aug-30 20:33N 32°18' E 030°27'1110.5
2015-Aug-30 19:32N 32°15' E 030°39'4210.0
2015-Aug-30 15:22N 31°57' E 031°23'8 9.7
2015-Aug-30 14:33N 31°52' E 031°31'28 1.7
2015-Aug-29 22:17N 31°28' E 031°46'0 0.0
2015-Aug-29 21:32N 31°28' E 031°46'0 0.0
2015-Aug-29 18:11N 31°28' E 031°46'0 0.0
2015-Aug-29 17:26N 31°28' E 031°46'0 0.0
2015-Aug-29 15:29N 31°28' E 031°46'0 0.0
2015-Aug-28 12:32N 31°28' E 031°46'0 0.0
2015-Aug-28 11:32N 31°28' E 031°46'0 0.0
2015-Aug-28 10:32N 31°28' E 031°46'0 0.0
2015-Aug-28 01:23N 31°28' E 031°46'0 0.0
2015-Aug-28 00:11N 31°28' E 031°46'0 0.0
2015-Aug-27 23:32N 31°28' E 031°46'0 0.0
2015-Aug-27 21:32N 31°28' E 031°46'0 0.0
2015-Aug-27 20:26N 31°28' E 031°46'0 0.0
2015-Aug-27 15:26N 31°28' E 031°46'0 0.0
2015-Aug-26 21:32N 31°28' E 031°46'  

Dump ship's entire track history